sensor_id;sensor_type;location;lat;lon;timestamp;P1;durP1;ratioP1;P2;durP2;ratioP2
21326;SDS011;10822;51.532;6.770;2023-06-14T00:01:24;4.78;;;3.90;;
21326;SDS011;10822;51.532;6.770;2023-06-14T00:03:51;5.47;;;4.28;;
21326;SDS011;10822;51.532;6.770;2023-06-14T00:06:17;5.47;;;3.78;;
21326;SDS011;10822;51.532;6.770;2023-06-14T00:08:43;5.40;;;4.07;;
21326;SDS011;10822;51.532;6.770;2023-06-14T00:11:09;6.25;;;4.28;;
21326;SDS011;10822;51.532;6.770;2023-06-14T00:13:35;4.88;;;3.95;;
21326;SDS011;10822;51.532;6.770;2023-06-14T00:16:01;4.30;;;3.90;;
21326;SDS011;10822;51.532;6.770;2023-06-14T00:18:28;6.75;;;4.38;;
21326;SDS011;10822;51.532;6.770;2023-06-14T00:20:55;5.50;;;4.13;;
21326;SDS011;10822;51.532;6.770;2023-06-14T00:23:21;5.97;;;4.15;;
21326;SDS011;10822;51.532;6.770;2023-06-14T00:25:47;5.63;;;4.25;;
21326;SDS011;10822;51.532;6.770;2023-06-14T00:28:13;5.68;;;4.35;;
21326;SDS011;10822;51.532;6.770;2023-06-14T00:30:39;6.97;;;4.13;;
21326;SDS011;10822;51.532;6.770;2023-06-14T00:33:05;5.30;;;3.90;;
21326;SDS011;10822;51.532;6.770;2023-06-14T00:35:31;5.18;;;4.03;;
21326;SDS011;10822;51.532;6.770;2023-06-14T00:37:57;4.63;;;4.13;;
21326;SDS011;10822;51.532;6.770;2023-06-14T00:40:24;5.40;;;4.18;;
21326;SDS011;10822;51.532;6.770;2023-06-14T00:42:50;5.47;;;3.97;;
21326;SDS011;10822;51.532;6.770;2023-06-14T00:45:16;5.15;;;3.50;;
21326;SDS011;10822;51.532;6.770;2023-06-14T00:47:42;10.98;;;4.50;;
21326;SDS011;10822;51.532;6.770;2023-06-14T00:50:09;4.95;;;3.90;;
21326;SDS011;10822;51.532;6.770;2023-06-14T00:52:36;6.50;;;4.13;;
21326;SDS011;10822;51.532;6.770;2023-06-14T00:55:02;6.07;;;3.85;;
21326;SDS011;10822;51.532;6.770;2023-06-14T00:57:28;6.20;;;4.35;;
21326;SDS011;10822;51.532;6.770;2023-06-14T00:59:54;5.45;;;4.00;;
21326;SDS011;10822;51.532;6.770;2023-06-14T01:02:21;4.70;;;4.18;;
21326;SDS011;10822;51.532;6.770;2023-06-14T01:04:47;5.00;;;3.92;;
21326;SDS011;10822;51.532;6.770;2023-06-14T01:12:35;4.03;;;3.40;;
21326;SDS011;10822;51.532;6.770;2023-06-14T01:15:02;5.20;;;3.75;;
21326;SDS011;10822;51.532;6.770;2023-06-14T01:17:29;4.20;;;3.30;;
21326;SDS011;10822;51.532;6.770;2023-06-14T01:19:58;4.88;;;3.50;;
21326;SDS011;10822;51.532;6.770;2023-06-14T01:22:27;4.57;;;3.50;;
21326;SDS011;10822;51.532;6.770;2023-06-14T01:24:53;3.85;;;3.00;;
21326;SDS011;10822;51.532;6.770;2023-06-14T01:27:23;4.78;;;3.20;;
21326;SDS011;10822;51.532;6.770;2023-06-14T01:29:53;6.75;;;3.60;;
21326;SDS011;10822;51.532;6.770;2023-06-14T01:32:21;4.20;;;3.08;;
21326;SDS011;10822;51.532;6.770;2023-06-14T01:34:47;5.88;;;3.70;;
21326;SDS011;10822;51.532;6.770;2023-06-14T01:37:13;5.20;;;3.33;;
21326;SDS011;10822;51.532;6.770;2023-06-14T01:39:39;4.03;;;3.15;;
21326;SDS011;10822;51.532;6.770;2023-06-14T01:42:06;5.50;;;3.28;;
21326;SDS011;10822;51.532;6.770;2023-06-14T01:44:32;4.30;;;3.38;;
21326;SDS011;10822;51.532;6.770;2023-06-14T01:46:58;4.50;;;3.13;;
21326;SDS011;10822;51.532;6.770;2023-06-14T01:49:25;5.95;;;3.30;;
21326;SDS011;10822;51.532;6.770;2023-06-14T01:51:51;6.85;;;3.40;;
21326;SDS011;10822;51.532;6.770;2023-06-14T01:54:17;4.05;;;2.58;;
21326;SDS011;10822;51.532;6.770;2023-06-14T01:56:43;4.80;;;3.08;;
21326;SDS011;10822;51.532;6.770;2023-06-14T01:59:09;3.45;;;2.90;;
21326;SDS011;10822;51.532;6.770;2023-06-14T02:01:35;3.80;;;2.85;;
21326;SDS011;10822;51.532;6.770;2023-06-14T02:04:01;4.07;;;3.17;;
21326;SDS011;10822;51.532;6.770;2023-06-14T02:06:27;4.22;;;2.85;;
21326;SDS011;10822;51.532;6.770;2023-06-14T02:08:53;4.13;;;2.90;;
21326;SDS011;10822;51.532;6.770;2023-06-14T02:11:19;3.45;;;2.80;;
21326;SDS011;10822;51.532;6.770;2023-06-14T02:13:45;3.97;;;2.90;;
21326;SDS011;10822;51.532;6.770;2023-06-14T02:16:11;4.90;;;2.90;;
21326;SDS011;10822;51.532;6.770;2023-06-14T02:18:37;4.47;;;2.78;;
21326;SDS011;10822;51.532;6.770;2023-06-14T02:21:03;3.70;;;3.00;;
21326;SDS011;10822;51.532;6.770;2023-06-14T02:23:29;3.90;;;3.00;;
21326;SDS011;10822;51.532;6.770;2023-06-14T02:25:57;4.50;;;3.00;;
21326;SDS011;10822;51.532;6.770;2023-06-14T02:28:22;3.60;;;2.70;;
21326;SDS011;10822;51.532;6.770;2023-06-14T02:30:49;3.67;;;2.90;;
21326;SDS011;10822;51.532;6.770;2023-06-14T02:33:15;5.00;;;3.03;;
21326;SDS011;10822;51.532;6.770;2023-06-14T02:35:42;4.15;;;2.88;;
21326;SDS011;10822;51.532;6.770;2023-06-14T02:38:08;5.32;;;3.13;;
21326;SDS011;10822;51.532;6.770;2023-06-14T02:40:34;5.60;;;3.30;;
21326;SDS011;10822;51.532;6.770;2023-06-14T02:43:00;5.72;;;3.17;;
21326;SDS011;10822;51.532;6.770;2023-06-14T02:45:26;4.70;;;2.72;;
21326;SDS011;10822;51.532;6.770;2023-06-14T02:47:52;5.80;;;2.80;;
21326;SDS011;10822;51.532;6.770;2023-06-14T02:50:20;4.00;;;3.10;;
21326;SDS011;10822;51.532;6.770;2023-06-14T02:52:46;4.93;;;3.05;;
21326;SDS011;10822;51.532;6.770;2023-06-14T02:55:12;4.15;;;3.22;;
21326;SDS011;10822;51.532;6.770;2023-06-14T02:57:38;4.68;;;2.60;;
21326;SDS011;10822;51.532;6.770;2023-06-14T03:00:04;4.93;;;3.03;;
21326;SDS011;10822;51.532;6.770;2023-06-14T03:02:34;4.50;;;3.10;;
21326;SDS011;10822;51.532;6.770;2023-06-14T03:05:00;3.53;;;2.70;;
21326;SDS011;10822;51.532;6.770;2023-06-14T03:07:27;4.00;;;2.83;;
21326;SDS011;10822;51.532;6.770;2023-06-14T03:09:54;4.68;;;3.50;;
21326;SDS011;10822;51.532;6.770;2023-06-14T03:12:20;5.22;;;3.67;;
21326;SDS011;10822;51.532;6.770;2023-06-14T03:14:46;9.10;;;4.10;;
21326;SDS011;10822;51.532;6.770;2023-06-14T03:17:12;5.78;;;3.40;;
21326;SDS011;10822;51.532;6.770;2023-06-14T03:19:38;6.30;;;3.95;;
21326;SDS011;10822;51.532;6.770;2023-06-14T03:22:06;4.22;;;3.30;;
21326;SDS011;10822;51.532;6.770;2023-06-14T03:24:32;5.90;;;2.60;;
21326;SDS011;10822;51.532;6.770;2023-06-14T03:27:01;4.40;;;2.55;;
21326;SDS011;10822;51.532;6.770;2023-06-14T03:29:27;3.83;;;2.75;;
21326;SDS011;10822;51.532;6.770;2023-06-14T03:32:02;4.50;;;2.80;;
21326;SDS011;10822;51.532;6.770;2023-06-14T03:34:29;5.68;;;2.72;;
21326;SDS011;10822;51.532;6.770;2023-06-14T03:36:55;3.65;;;2.38;;
21326;SDS011;10822;51.532;6.770;2023-06-14T03:39:21;5.32;;;2.90;;
21326;SDS011;10822;51.532;6.770;2023-06-14T03:41:47;5.00;;;2.90;;
21326;SDS011;10822;51.532;6.770;2023-06-14T03:44:14;4.60;;;2.92;;
21326;SDS011;10822;51.532;6.770;2023-06-14T03:46:40;3.75;;;2.90;;
21326;SDS011;10822;51.532;6.770;2023-06-14T03:49:06;5.88;;;3.33;;
21326;SDS011;10822;51.532;6.770;2023-06-14T03:51:32;5.97;;;3.08;;
21326;SDS011;10822;51.532;6.770;2023-06-14T03:54:00;4.65;;;3.30;;
21326;SDS011;10822;51.532;6.770;2023-06-14T03:56:26;4.35;;;3.45;;
21326;SDS011;10822;51.532;6.770;2023-06-14T03:58:52;4.28;;;2.92;;
21326;SDS011;10822;51.532;6.770;2023-06-14T04:01:18;3.67;;;2.47;;
21326;SDS011;10822;51.532;6.770;2023-06-14T04:03:44;4.25;;;2.70;;
21326;SDS011;10822;51.532;6.770;2023-06-14T04:06:10;3.92;;;2.60;;
21326;SDS011;10822;51.532;6.770;2023-06-14T04:08:36;5.40;;;2.75;;
21326;SDS011;10822;51.532;6.770;2023-06-14T04:11:04;5.38;;;2.75;;
21326;SDS011;10822;51.532;6.770;2023-06-14T04:13:30;3.10;;;2.30;;
21326;SDS011;10822;51.532;6.770;2023-06-14T04:15:56;2.83;;;2.20;;
21326;SDS011;10822;51.532;6.770;2023-06-14T04:18:22;5.03;;;2.75;;
21326;SDS011;10822;51.532;6.770;2023-06-14T04:20:48;4.35;;;2.72;;
21326;SDS011;10822;51.532;6.770;2023-06-14T04:23:16;3.78;;;2.47;;
21326;SDS011;10822;51.532;6.770;2023-06-14T04:25:43;4.15;;;2.55;;
21326;SDS011;10822;51.532;6.770;2023-06-14T04:28:14;4.70;;;2.90;;
21326;SDS011;10822;51.532;6.770;2023-06-14T04:30:41;3.03;;;2.50;;
21326;SDS011;10822;51.532;6.770;2023-06-14T04:33:07;4.80;;;2.70;;
21326;SDS011;10822;51.532;6.770;2023-06-14T04:35:34;5.95;;;2.70;;
21326;SDS011;10822;51.532;6.770;2023-06-14T04:38:01;5.35;;;2.70;;
21326;SDS011;10822;51.532;6.770;2023-06-14T04:40:29;5.13;;;2.55;;
21326;SDS011;10822;51.532;6.770;2023-06-14T04:42:55;4.53;;;2.40;;
21326;SDS011;10822;51.532;6.770;2023-06-14T04:45:22;4.05;;;2.60;;
21326;SDS011;10822;51.532;6.770;2023-06-14T04:47:48;2.88;;;2.17;;
21326;SDS011;10822;51.532;6.770;2023-06-14T04:50:16;3.90;;;2.28;;
21326;SDS011;10822;51.532;6.770;2023-06-14T04:52:43;5.78;;;2.67;;
21326;SDS011;10822;51.532;6.770;2023-06-14T04:55:09;4.03;;;2.50;;
21326;SDS011;10822;51.532;6.770;2023-06-14T04:57:35;4.78;;;2.25;;
21326;SDS011;10822;51.532;6.770;2023-06-14T05:00:03;7.57;;;2.42;;
21326;SDS011;10822;51.532;6.770;2023-06-14T05:02:30;3.33;;;2.28;;
21326;SDS011;10822;51.532;6.770;2023-06-14T05:04:56;3.97;;;2.40;;
21326;SDS011;10822;51.532;6.770;2023-06-14T05:07:22;2.70;;;2.35;;
21326;SDS011;10822;51.532;6.770;2023-06-14T05:09:48;3.75;;;2.22;;
21326;SDS011;10822;51.532;6.770;2023-06-14T05:12:15;4.30;;;2.42;;
21326;SDS011;10822;51.532;6.770;2023-06-14T05:14:43;3.88;;;2.50;;
21326;SDS011;10822;51.532;6.770;2023-06-14T05:17:09;2.83;;;2.20;;
21326;SDS011;10822;51.532;6.770;2023-06-14T05:19:35;4.20;;;2.17;;
21326;SDS011;10822;51.532;6.770;2023-06-14T05:22:01;4.00;;;2.45;;
21326;SDS011;10822;51.532;6.770;2023-06-14T05:24:28;3.95;;;2.50;;
21326;SDS011;10822;51.532;6.770;2023-06-14T05:26:55;6.25;;;2.25;;
21326;SDS011;10822;51.532;6.770;2023-06-14T05:29:21;4.30;;;2.20;;
21326;SDS011;10822;51.532;6.770;2023-06-14T05:31:47;3.05;;;2.17;;
21326;SDS011;10822;51.532;6.770;2023-06-14T05:34:13;3.45;;;2.25;;
21326;SDS011;10822;51.532;6.770;2023-06-14T05:36:39;3.90;;;2.45;;
21326;SDS011;10822;51.532;6.770;2023-06-14T05:39:05;3.55;;;2.30;;
21326;SDS011;10822;51.532;6.770;2023-06-14T05:41:31;6.47;;;2.28;;
21326;SDS011;10822;51.532;6.770;2023-06-14T05:43:57;3.08;;;2.15;;
21326;SDS011;10822;51.532;6.770;2023-06-14T05:46:25;4.97;;;2.40;;
21326;SDS011;10822;51.532;6.770;2023-06-14T05:48:51;3.10;;;2.25;;
21326;SDS011;10822;51.532;6.770;2023-06-14T05:51:17;6.72;;;2.35;;
21326;SDS011;10822;51.532;6.770;2023-06-14T05:53:47;2.75;;;2.13;;
21326;SDS011;10822;51.532;6.770;2023-06-14T05:56:13;3.92;;;2.28;;
21326;SDS011;10822;51.532;6.770;2023-06-14T05:58:40;4.50;;;2.13;;
21326;SDS011;10822;51.532;6.770;2023-06-14T06:01:06;4.55;;;2.22;;
21326;SDS011;10822;51.532;6.770;2023-06-14T06:03:32;8.25;;;2.40;;
21326;SDS011;10822;51.532;6.770;2023-06-14T06:05:59;5.68;;;2.40;;
21326;SDS011;10822;51.532;6.770;2023-06-14T06:08:25;3.08;;;2.22;;
21326;SDS011;10822;51.532;6.770;2023-06-14T06:10:51;3.45;;;2.40;;
21326;SDS011;10822;51.532;6.770;2023-06-14T06:13:17;4.22;;;1.92;;
21326;SDS011;10822;51.532;6.770;2023-06-14T06:15:43;5.32;;;2.53;;
21326;SDS011;10822;51.532;6.770;2023-06-14T06:18:09;4.00;;;2.90;;
21326;SDS011;10822;51.532;6.770;2023-06-14T06:20:35;3.15;;;2.15;;
21326;SDS011;10822;51.532;6.770;2023-06-14T06:23:01;2.90;;;2.10;;
21326;SDS011;10822;51.532;6.770;2023-06-14T06:25:27;5.40;;;2.33;;
21326;SDS011;10822;51.532;6.770;2023-06-14T06:27:56;4.40;;;2.28;;
21326;SDS011;10822;51.532;6.770;2023-06-14T06:30:22;5.25;;;1.88;;
21326;SDS011;10822;51.532;6.770;2023-06-14T06:32:48;3.72;;;1.90;;
21326;SDS011;10822;51.532;6.770;2023-06-14T06:35:14;5.97;;;2.00;;
21326;SDS011;10822;51.532;6.770;2023-06-14T06:37:43;5.88;;;2.10;;
21326;SDS011;10822;51.532;6.770;2023-06-14T06:40:09;4.95;;;2.15;;
21326;SDS011;10822;51.532;6.770;2023-06-14T06:42:35;7.13;;;1.80;;
21326;SDS011;10822;51.532;6.770;2023-06-14T06:45:02;4.13;;;1.90;;
21326;SDS011;10822;51.532;6.770;2023-06-14T06:47:28;4.32;;;2.03;;
21326;SDS011;10822;51.532;6.770;2023-06-14T06:49:54;2.03;;;1.60;;
21326;SDS011;10822;51.532;6.770;2023-06-14T06:52:20;3.70;;;1.77;;
21326;SDS011;10822;51.532;6.770;2023-06-14T06:54:46;2.50;;;1.75;;
21326;SDS011;10822;51.532;6.770;2023-06-14T06:57:12;2.40;;;1.70;;
21326;SDS011;10822;51.532;6.770;2023-06-14T06:59:38;3.40;;;1.85;;
21326;SDS011;10822;51.532;6.770;2023-06-14T07:02:06;4.57;;;1.80;;
21326;SDS011;10822;51.532;6.770;2023-06-14T07:04:32;4.22;;;1.50;;
21326;SDS011;10822;51.532;6.770;2023-06-14T07:06:58;4.00;;;1.45;;
21326;SDS011;10822;51.532;6.770;2023-06-14T07:09:23;2.38;;;1.40;;
21326;SDS011;10822;51.532;6.770;2023-06-14T07:11:49;2.75;;;1.92;;
21326;SDS011;10822;51.532;6.770;2023-06-14T07:14:16;4.40;;;1.60;;
21326;SDS011;10822;51.532;6.770;2023-06-14T07:16:42;3.97;;;2.10;;
21326;SDS011;10822;51.532;6.770;2023-06-14T07:19:08;3.80;;;1.60;;
21326;SDS011;10822;51.532;6.770;2023-06-14T07:21:35;7.35;;;1.50;;
21326;SDS011;10822;51.532;6.770;2023-06-14T07:24:03;4.72;;;1.70;;
21326;SDS011;10822;51.532;6.770;2023-06-14T07:26:29;1.63;;;1.48;;
21326;SDS011;10822;51.532;6.770;2023-06-14T07:28:55;2.60;;;1.63;;
21326;SDS011;10822;51.532;6.770;2023-06-14T07:31:22;2.92;;;1.70;;
21326;SDS011;10822;51.532;6.770;2023-06-14T07:33:48;2.70;;;1.40;;
21326;SDS011;10822;51.532;6.770;2023-06-14T07:36:14;3.72;;;1.80;;
21326;SDS011;10822;51.532;6.770;2023-06-14T07:38:40;2.35;;;1.67;;
21326;SDS011;10822;51.532;6.770;2023-06-14T07:41:07;2.78;;;1.67;;
21326;SDS011;10822;51.532;6.770;2023-06-14T07:43:33;4.97;;;1.60;;
21326;SDS011;10822;51.532;6.770;2023-06-14T07:45:59;2.70;;;1.65;;
21326;SDS011;10822;51.532;6.770;2023-06-14T07:48:25;2.13;;;1.60;;
21326;SDS011;10822;51.532;6.770;2023-06-14T07:50:51;2.38;;;1.23;;
21326;SDS011;10822;51.532;6.770;2023-06-14T07:53:17;4.18;;;1.63;;
21326;SDS011;10822;51.532;6.770;2023-06-14T07:55:43;2.50;;;1.55;;
21326;SDS011;10822;51.532;6.770;2023-06-14T07:58:09;2.90;;;1.60;;
21326;SDS011;10822;51.532;6.770;2023-06-14T08:00:35;2.50;;;1.50;;
21326;SDS011;10822;51.532;6.770;2023-06-14T08:03:01;3.47;;;1.50;;
21326;SDS011;10822;51.532;6.770;2023-06-14T08:05:28;2.78;;;1.42;;
21326;SDS011;10822;51.532;6.770;2023-06-14T08:07:54;1.98;;;1.42;;
21326;SDS011;10822;51.532;6.770;2023-06-14T08:10:21;3.83;;;1.60;;
21326;SDS011;10822;51.532;6.770;2023-06-14T08:12:47;2.55;;;1.50;;
21326;SDS011;10822;51.532;6.770;2023-06-14T08:15:16;3.95;;;1.60;;
21326;SDS011;10822;51.532;6.770;2023-06-14T08:17:42;3.63;;;1.60;;
21326;SDS011;10822;51.532;6.770;2023-06-14T08:20:09;2.05;;;1.50;;
21326;SDS011;10822;51.532;6.770;2023-06-14T08:22:35;3.03;;;1.67;;
21326;SDS011;10822;51.532;6.770;2023-06-14T08:25:02;1.70;;;1.60;;
21326;SDS011;10822;51.532;6.770;2023-06-14T08:27:28;2.60;;;1.80;;
21326;SDS011;10822;51.532;6.770;2023-06-14T08:29:54;3.38;;;1.98;;
21326;SDS011;10822;51.532;6.770;2023-06-14T08:32:21;3.25;;;1.65;;
21326;SDS011;10822;51.532;6.770;2023-06-14T08:34:47;2.75;;;1.75;;
21326;SDS011;10822;51.532;6.770;2023-06-14T08:37:13;2.03;;;1.60;;
21326;SDS011;10822;51.532;6.770;2023-06-14T08:39:39;4.22;;;1.70;;
21326;SDS011;10822;51.532;6.770;2023-06-14T08:42:05;1.77;;;1.48;;
21326;SDS011;10822;51.532;6.770;2023-06-14T08:44:32;3.75;;;1.48;;
21326;SDS011;10822;51.532;6.770;2023-06-14T08:47:01;2.13;;;1.48;;
21326;SDS011;10822;51.532;6.770;2023-06-14T08:49:28;2.10;;;1.70;;
21326;SDS011;10822;51.532;6.770;2023-06-14T08:51:57;2.13;;;1.90;;
21326;SDS011;10822;51.532;6.770;2023-06-14T08:54:24;2.30;;;1.52;;
21326;SDS011;10822;51.532;6.770;2023-06-14T08:56:52;2.30;;;1.83;;
21326;SDS011;10822;51.532;6.770;2023-06-14T08:59:18;2.13;;;1.40;;
21326;SDS011;10822;51.532;6.770;2023-06-14T09:01:46;3.92;;;1.48;;
21326;SDS011;10822;51.532;6.770;2023-06-14T09:04:12;3.85;;;2.95;;
21326;SDS011;10822;51.532;6.770;2023-06-14T09:06:38;2.25;;;1.88;;
21326;SDS011;10822;51.532;6.770;2023-06-14T09:09:05;1.75;;;1.50;;
21326;SDS011;10822;51.532;6.770;2023-06-14T09:11:32;2.53;;;1.40;;
21326;SDS011;10822;51.532;6.770;2023-06-14T09:13:58;2.30;;;1.42;;
21326;SDS011;10822;51.532;6.770;2023-06-14T09:16:25;2.17;;;1.50;;
21326;SDS011;10822;51.532;6.770;2023-06-14T09:18:51;4.55;;;2.22;;
21326;SDS011;10822;51.532;6.770;2023-06-14T09:21:17;4.20;;;1.52;;
21326;SDS011;10822;51.532;6.770;2023-06-14T09:23:47;3.72;;;1.40;;
21326;SDS011;10822;51.532;6.770;2023-06-14T09:26:14;2.17;;;1.38;;
21326;SDS011;10822;51.532;6.770;2023-06-14T09:28:47;2.72;;;1.50;;
21326;SDS011;10822;51.532;6.770;2023-06-14T09:31:14;3.15;;;1.50;;
21326;SDS011;10822;51.532;6.770;2023-06-14T09:33:43;1.48;;;1.38;;
21326;SDS011;10822;51.532;6.770;2023-06-14T09:36:13;1.70;;;1.48;;
21326;SDS011;10822;51.532;6.770;2023-06-14T09:38:41;2.58;;;1.30;;
21326;SDS011;10822;51.532;6.770;2023-06-14T09:41:07;8.75;;;5.18;;
21326;SDS011;10822;51.532;6.770;2023-06-14T09:43:33;8.13;;;3.85;;
21326;SDS011;10822;51.532;6.770;2023-06-14T09:46:03;2.30;;;1.70;;
21326;SDS011;10822;51.532;6.770;2023-06-14T09:48:29;2.42;;;1.27;;
21326;SDS011;10822;51.532;6.770;2023-06-14T09:50:55;1.95;;;1.27;;
21326;SDS011;10822;51.532;6.770;2023-06-14T09:53:23;3.15;;;1.30;;
21326;SDS011;10822;51.532;6.770;2023-06-14T09:55:49;3.30;;;1.70;;
21326;SDS011;10822;51.532;6.770;2023-06-14T09:58:18;3.67;;;1.75;;
21326;SDS011;10822;51.532;6.770;2023-06-14T10:00:46;5.05;;;3.40;;
21326;SDS011;10822;51.532;6.770;2023-06-14T10:03:16;2.03;;;1.30;;
21326;SDS011;10822;51.532;6.770;2023-06-14T10:05:47;1.95;;;0.85;;
21326;SDS011;10822;51.532;6.770;2023-06-14T10:08:15;1.88;;;1.15;;
21326;SDS011;10822;51.532;6.770;2023-06-14T10:10:42;0.90;;;0.80;;
21326;SDS011;10822;51.532;6.770;2023-06-14T10:13:08;1.35;;;0.80;;
21326;SDS011;10822;51.532;6.770;2023-06-14T10:15:50;1.85;;;0.98;;
21326;SDS011;10822;51.532;6.770;2023-06-14T10:20:53;1.33;;;0.90;;
21326;SDS011;10822;51.532;6.770;2023-06-14T10:23:21;1.08;;;0.88;;
21326;SDS011;10822;51.532;6.770;2023-06-14T10:25:54;1.88;;;0.90;;
21326;SDS011;10822;51.532;6.770;2023-06-14T10:28:21;2.05;;;0.90;;
21326;SDS011;10822;51.532;6.770;2023-06-14T10:31:07;2.05;;;0.98;;
21326;SDS011;10822;51.532;6.770;2023-06-14T10:33:38;2.35;;;0.88;;
21326;SDS011;10822;51.532;6.770;2023-06-14T10:36:26;2.25;;;0.63;;
21326;SDS011;10822;51.532;6.770;2023-06-14T10:39:20;2.10;;;0.80;;
21326;SDS011;10822;51.532;6.770;2023-06-14T10:41:52;0.70;;;0.55;;
21326;SDS011;10822;51.532;6.770;2023-06-14T10:49:16;3.42;;;0.63;;
21326;SDS011;10822;51.532;6.770;2023-06-14T10:51:46;3.50;;;0.55;;
21326;SDS011;10822;51.532;6.770;2023-06-14T10:54:15;2.22;;;0.60;;
21326;SDS011;10822;51.532;6.770;2023-06-14T10:56:51;0.93;;;0.85;;
21326;SDS011;10822;51.532;6.770;2023-06-14T10:59:18;4.90;;;1.65;;
21326;SDS011;10822;51.532;6.770;2023-06-14T11:04:51;1.20;;;0.52;;
21326;SDS011;10822;51.532;6.770;2023-06-14T11:08:11;2.13;;;1.15;;
21326;SDS011;10822;51.532;6.770;2023-06-14T11:10:28;0.60;;;0.60;;
21326;SDS011;10822;51.532;6.770;2023-06-14T11:12:57;1.02;;;0.82;;
21326;SDS011;10822;51.532;6.770;2023-06-14T11:15:27;2.13;;;0.63;;
21326;SDS011;10822;51.532;6.770;2023-06-14T11:17:53;0.68;;;0.57;;
21326;SDS011;10822;51.532;6.770;2023-06-14T11:20:24;0.82;;;0.73;;
21326;SDS011;10822;51.532;6.770;2023-06-14T11:22:51;1.98;;;0.95;;
21326;SDS011;10822;51.532;6.770;2023-06-14T11:25:17;1.52;;;1.08;;
21326;SDS011;10822;51.532;6.770;2023-06-14T11:27:43;2.72;;;1.00;;
21326;SDS011;10822;51.532;6.770;2023-06-14T11:30:10;0.80;;;0.80;;
21326;SDS011;10822;51.532;6.770;2023-06-14T11:32:39;1.70;;;0.80;;
21326;SDS011;10822;51.532;6.770;2023-06-14T11:35:06;2.63;;;1.00;;
21326;SDS011;10822;51.532;6.770;2023-06-14T11:37:32;2.45;;;0.90;;
21326;SDS011;10822;51.532;6.770;2023-06-14T11:39:59;0.90;;;0.80;;
21326;SDS011;10822;51.532;6.770;2023-06-14T11:42:28;2.78;;;1.02;;
21326;SDS011;10822;51.532;6.770;2023-06-14T11:44:55;0.80;;;0.80;;
21326;SDS011;10822;51.532;6.770;2023-06-14T11:47:21;1.35;;;0.98;;
21326;SDS011;10822;51.532;6.770;2023-06-14T11:49:47;1.23;;;0.90;;
21326;SDS011;10822;51.532;6.770;2023-06-14T11:52:13;1.83;;;1.30;;
21326;SDS011;10822;51.532;6.770;2023-06-14T11:54:40;4.18;;;1.10;;
21326;SDS011;10822;51.532;6.770;2023-06-14T11:57:06;1.92;;;0.85;;
21326;SDS011;10822;51.532;6.770;2023-06-14T11:59:37;3.25;;;1.15;;
21326;SDS011;10822;51.532;6.770;2023-06-14T12:02:04;3.45;;;0.90;;
21326;SDS011;10822;51.532;6.770;2023-06-14T12:04:31;1.27;;;1.00;;
21326;SDS011;10822;51.532;6.770;2023-06-14T12:06:57;3.35;;;0.90;;
21326;SDS011;10822;51.532;6.770;2023-06-14T12:09:23;1.67;;;1.20;;
21326;SDS011;10822;51.532;6.770;2023-06-14T12:11:51;3.42;;;2.03;;
21326;SDS011;10822;51.532;6.770;2023-06-14T12:14:30;1.88;;;1.13;;
21326;SDS011;10822;51.532;6.770;2023-06-14T12:17:05;2.35;;;1.10;;
21326;SDS011;10822;51.532;6.770;2023-06-14T12:19:41;1.27;;;0.77;;
21326;SDS011;10822;51.532;6.770;2023-06-14T12:22:09;1.05;;;0.95;;
21326;SDS011;10822;51.532;6.770;2023-06-14T12:24:35;2.05;;;1.00;;
21326;SDS011;10822;51.532;6.770;2023-06-14T12:27:01;1.58;;;0.90;;
21326;SDS011;10822;51.532;6.770;2023-06-14T12:29:30;2.50;;;1.00;;
21326;SDS011;10822;51.532;6.770;2023-06-14T12:31:56;0.85;;;0.85;;
21326;SDS011;10822;51.532;6.770;2023-06-14T12:34:23;1.45;;;1.00;;
21326;SDS011;10822;51.532;6.770;2023-06-14T12:36:55;1.88;;;1.10;;
21326;SDS011;10822;51.532;6.770;2023-06-14T12:41:47;1.95;;;1.20;;
21326;SDS011;10822;51.532;6.770;2023-06-14T12:44:14;8.60;;;1.55;;
21326;SDS011;10822;51.532;6.770;2023-06-14T12:46:41;0.90;;;0.85;;
21326;SDS011;10822;51.532;6.770;2023-06-14T12:49:08;1.70;;;1.20;;
21326;SDS011;10822;51.532;6.770;2023-06-14T12:51:34;1.80;;;1.15;;
21326;SDS011;10822;51.532;6.770;2023-06-14T12:54:00;1.48;;;1.10;;
21326;SDS011;10822;51.532;6.770;2023-06-14T12:56:26;2.17;;;1.00;;
21326;SDS011;10822;51.532;6.770;2023-06-14T12:58:52;2.00;;;1.25;;
21326;SDS011;10822;51.532;6.770;2023-06-14T13:01:19;2.35;;;1.30;;
21326;SDS011;10822;51.532;6.770;2023-06-14T13:03:46;4.60;;;1.55;;
21326;SDS011;10822;51.532;6.770;2023-06-14T13:06:12;2.97;;;1.40;;
21326;SDS011;10822;51.532;6.770;2023-06-14T13:08:38;2.58;;;1.30;;
21326;SDS011;10822;51.532;6.770;2023-06-14T13:11:04;1.88;;;1.52;;
21326;SDS011;10822;51.532;6.770;2023-06-14T13:13:30;1.20;;;1.10;;
21326;SDS011;10822;51.532;6.770;2023-06-14T13:15:56;2.90;;;1.30;;
21326;SDS011;10822;51.532;6.770;2023-06-14T13:18:22;1.60;;;1.10;;
21326;SDS011;10822;51.532;6.770;2023-06-14T13:20:48;1.60;;;1.50;;
21326;SDS011;10822;51.532;6.770;2023-06-14T13:23:15;3.75;;;2.67;;
21326;SDS011;10822;51.532;6.770;2023-06-14T13:25:41;4.07;;;2.55;;
21326;SDS011;10822;51.532;6.770;2023-06-14T13:28:07;3.80;;;2.70;;
21326;SDS011;10822;51.532;6.770;2023-06-14T13:30:33;2.55;;;1.60;;
21326;SDS011;10822;51.532;6.770;2023-06-14T13:32:59;1.38;;;1.27;;
21326;SDS011;10822;51.532;6.770;2023-06-14T13:35:25;1.92;;;1.23;;
21326;SDS011;10822;51.532;6.770;2023-06-14T13:37:51;5.72;;;2.40;;
21326;SDS011;10822;51.532;6.770;2023-06-14T13:40:17;5.00;;;1.63;;
21326;SDS011;10822;51.532;6.770;2023-06-14T13:42:44;2.33;;;1.50;;
21326;SDS011;10822;51.532;6.770;2023-06-14T13:45:10;1.52;;;1.30;;
21326;SDS011;10822;51.532;6.770;2023-06-14T13:47:45;1.77;;;1.30;;
21326;SDS011;10822;51.532;6.770;2023-06-14T13:50:13;1.70;;;1.20;;
21326;SDS011;10822;51.532;6.770;2023-06-14T13:52:39;1.95;;;1.20;;
21326;SDS011;10822;51.532;6.770;2023-06-14T13:55:05;3.92;;;1.60;;
21326;SDS011;10822;51.532;6.770;2023-06-14T13:57:32;2.85;;;1.67;;
21326;SDS011;10822;51.532;6.770;2023-06-14T13:59:58;2.72;;;1.48;;
21326;SDS011;10822;51.532;6.770;2023-06-14T14:02:26;1.75;;;1.50;;
21326;SDS011;10822;51.532;6.770;2023-06-14T14:04:54;2.08;;;1.33;;
21326;SDS011;10822;51.532;6.770;2023-06-14T14:07:20;1.27;;;1.17;;
21326;SDS011;10822;51.532;6.770;2023-06-14T14:09:47;1.30;;;1.05;;
21326;SDS011;10822;51.532;6.770;2023-06-14T14:12:13;4.00;;;1.48;;
21326;SDS011;10822;51.532;6.770;2023-06-14T14:14:43;2.80;;;1.42;;
21326;SDS011;10822;51.532;6.770;2023-06-14T14:17:09;3.85;;;1.50;;
21326;SDS011;10822;51.532;6.770;2023-06-14T14:19:35;1.60;;;1.50;;
21326;SDS011;10822;51.532;6.770;2023-06-14T14:22:01;1.80;;;1.45;;
21326;SDS011;10822;51.532;6.770;2023-06-14T14:24:27;1.75;;;1.50;;
21326;SDS011;10822;51.532;6.770;2023-06-14T14:26:53;3.35;;;1.50;;
21326;SDS011;10822;51.532;6.770;2023-06-14T14:29:20;2.20;;;1.55;;
21326;SDS011;10822;51.532;6.770;2023-06-14T14:31:47;2.67;;;1.63;;
21326;SDS011;10822;51.532;6.770;2023-06-14T14:34:13;1.60;;;1.40;;
21326;SDS011;10822;51.532;6.770;2023-06-14T14:36:39;1.65;;;1.50;;
21326;SDS011;10822;51.532;6.770;2023-06-14T14:39:07;3.78;;;2.60;;
21326;SDS011;10822;51.532;6.770;2023-06-14T14:41:33;2.13;;;1.60;;
21326;SDS011;10822;51.532;6.770;2023-06-14T14:43:59;6.25;;;1.67;;
21326;SDS011;10822;51.532;6.770;2023-06-14T14:46:25;2.92;;;1.83;;
21326;SDS011;10822;51.532;6.770;2023-06-14T14:48:51;4.38;;;1.77;;
21326;SDS011;10822;51.532;6.770;2023-06-14T14:51:17;3.03;;;1.75;;
21326;SDS011;10822;51.532;6.770;2023-06-14T14:53:43;4.15;;;1.75;;
21326;SDS011;10822;51.532;6.770;2023-06-14T14:56:09;2.85;;;1.60;;
21326;SDS011;10822;51.532;6.770;2023-06-14T14:58:36;2.28;;;1.95;;
21326;SDS011;10822;51.532;6.770;2023-06-14T15:01:02;2.45;;;1.70;;
21326;SDS011;10822;51.532;6.770;2023-06-14T15:03:30;3.78;;;1.80;;
21326;SDS011;10822;51.532;6.770;2023-06-14T15:05:56;2.38;;;1.40;;